Time;durP1;ratioP1;P1;durP2;ratioP2;P2;SDS_P1;SDS_P2;PMS_P1;PMS_P2;Temp;Humidity;BMP_temperature;BMP_pressure;BME280_temperature;BME280_humidity;BME280_pressure;Samples;Min_cycle;Max_cycle;Signal;HPM_P1;HPM_P2
2023/10/23 00:01:22;;;;;;;16.40;8.80;;;;;;;14.37;100.00;99022.43;79648;1298;3018946;-67
2023/10/23 00:03:49;;;;;;;17.70;7.80;;;;;;;14.29;100.00;99017.33;79697;1299;3013167;-64
2023/10/23 00:06:16;;;;;;;15.80;6.90;;;;;;;14.53;100.00;99015.84;78413;1298;3028073;-67
2023/10/23 00:08:43;;;;;;;17.00;8.40;;;;;;;14.88;99.77;99010.42;79703;1294;3019141;-66
2023/10/23 00:11:09;;;;;;;19.50;8.20;;;;;;;14.68;99.75;99009.84;79678;1296;3013310;-67
2023/10/23 00:13:37;;;;;;;23.30;9.20;;;;;;;14.53;100.00;99007.52;78357;1300;3025263;-65
2023/10/23 00:16:04;;;;;;;15.00;7.50;;;;;;;14.23;100.00;99016.78;79721;1295;3013482;-65
2023/10/23 00:18:31;;;;;;;14.10;7.70;;;;;;;14.53;100.00;99017.95;79579;1298;3012908;-68
2023/10/23 00:20:59;;;;;;;15.70;7.30;;;;;;;14.80;99.91;99001.79;78486;1298;3028265;-65
2023/10/23 00:23:25;;;;;;;21.20;8.60;;;;;;;14.58;100.00;99005.06;79743;1298;3013084;-65
2023/10/23 00:25:51;;;;;;;17.40;8.50;;;;;;;14.38;100.00;99012.82;79663;1295;3011792;-69
2023/10/23 00:28:19;;;;;;;10.70;6.80;;;;;;;14.16;100.00;99012.89;78499;1296;3028655;-68
2023/10/23 00:30:46;;;;;;;15.40;7.20;;;;;;;14.42;100.00;99002.50;79742;1294;3013580;-67
2023/10/23 00:33:12;;;;;;;16.80;7.90;;;;;;;14.64;100.00;98992.39;79670;1295;3011796;-68
2023/10/23 00:35:40;;;;;;;15.50;8.50;;;;;;;14.60;100.00;98992.70;78373;1297;3026651;-67
2023/10/23 00:38:06;;;;;;;20.80;8.40;;;;;;;14.31;100.00;98998.79;79709;1294;3019025;-64
2023/10/23 00:40:33;;;;;;;19.40;8.80;;;;;;;13.99;100.00;99013.42;79780;1295;3011692;-69
2023/10/23 00:43:34;;;;;;;16.50;8.00;;;;;;;14.34;100.00;99000.47;78563;1296;3026268;-66
2023/10/23 00:46:06;;;;;;;13.80;7.70;;;;;;;14.62;100.00;98984.09;78240;1298;3053436;-65
2023/10/23 00:48:33;;;;;;;;;;;;;;;14.47;100.00;98990.44;79515;1294;3012299;-69
2023/10/23 00:51:02;;;;;;;15.90;8.30;;;;;;;14.28;100.00;98990.27;78236;1298;3052965;-65
2023/10/23 00:53:31;;;;;;;14.90;6.70;;;;;;;14.11;100.00;98996.78;79505;1300;3018937;-68
2023/10/23 00:56:02;;;;;;;11.40;6.70;;;;;;;14.42;100.00;98993.19;79026;1300;3012844;-68
2023/10/23 00:58:30;;;;;;;12.80;6.60;;;;;;;14.56;100.00;98969.44;79819;1294;3013383;-70
2023/10/23 01:00:59;;;;;;;16.10;8.40;;;;;;;14.52;100.00;98962.03;78417;1296;3026817;-66
2023/10/23 01:03:26;;;;;;;19.40;9.50;;;;;;;14.30;100.00;98969.14;79593;1300;3013721;-69
2023/10/23 01:05:53;;;;;;;14.20;6.90;;;;;;;14.15;100.00;98974.42;79578;1296;3011637;-70
2023/10/23 01:08:21;;;;;;;13.60;7.10;;;;;;;14.45;100.00;98980.91;78523;1298;3052561;-66
2023/10/23 01:10:47;;;;;;;15.70;8.30;;;;;;;14.54;100.00;98979.61;79672;1298;3018879;-67
2023/10/23 01:13:14;;;;;;;17.00;9.20;;;;;;;14.55;100.00;98970.86;79809;1295;3011645;-68
2023/10/23 01:15:42;;;;;;;17.40;10.20;;;;;;;14.34;100.00;98972.89;78309;1300;3026121;-65
2023/10/23 01:18:08;;;;;;;17.70;8.50;;;;;;;14.11;100.00;98978.63;79500;1294;3018527;-70
2023/10/23 01:20:35;;;;;;;19.20;8.90;;;;;;;14.41;100.00;98969.61;79621;1296;3012764;-69
2023/10/23 01:23:02;;;;;;;17.10;9.60;;;;;;;14.52;100.00;98953.58;78446;1297;3026932;-70
2023/10/23 01:25:29;;;;;;;21.10;8.90;;;;;;;14.46;100.00;98950.82;79565;1298;3012950;-67
2023/10/23 01:27:56;;;;;;;21.80;10.70;;;;;;;14.32;100.00;98946.23;79615;1295;3011508;-66
2023/10/23 01:30:24;;;;;;;15.20;8.00;;;;;;;14.15;100.00;98952.45;78357;1299;3026789;-69
2023/10/23 01:32:50;;;;;;;15.00;8.10;;;;;;;14.30;100.00;98954.52;79741;1295;3019245;-65
2023/10/23 01:35:17;;;;;;;15.00;8.80;;;;;;;14.58;100.00;98944.90;79674;1296;3012898;-67
2023/10/23 01:37:45;;;;;;;13.90;8.90;;;;;;;14.50;100.00;98943.86;78464;1298;3025703;-68
2023/10/23 01:40:12;;;;;;;18.10;8.40;;;;;;;14.34;100.00;98948.04;79793;1298;3013629;-68
2023/10/23 01:42:39;;;;;;;12.80;7.20;;;;;;;14.06;100.00;98960.38;79684;1296;3011744;-67
2023/10/23 01:45:07;;;;;;;11.60;6.70;;;;;;;14.14;100.00;98955.48;78599;1298;3056579;-70
2023/10/23 01:47:35;;;;;;;9.80;7.10;;;;;;;14.46;100.00;98941.21;79808;1294;3012785;-67
2023/10/23 01:50:02;;;;;;;11.60;7.60;;;;;;;14.30;100.00;98938.70;79748;1296;3013583;-67
2023/10/23 01:52:30;;;;;;;11.80;7.70;;;;;;;14.12;100.00;98940.65;78598;1295;3052461;-65
2023/10/23 01:54:58;;;;;;;9.30;5.50;;;;;;;14.05;100.00;98946.58;79672;1297;3013207;-69
2023/10/23 01:57:25;;;;;;;7.80;5.50;;;;;;;14.22;100.00;98942.16;79648;1295;3011148;-67
2023/10/23 01:59:52;;;;;;;9.90;6.60;;;;;;;14.34;100.00;98937.59;78569;1295;3056235;-68
2023/10/23 02:02:19;;;;;;;10.70;7.50;;;;;;;14.26;100.00;98940.76;79767;1295;3013553;-69
2023/10/23 02:04:45;;;;;;;13.10;7.20;;;;;;;14.05;100.00;98951.16;79604;1295;3011472;-69
2023/10/23 02:07:13;;;;;;;7.70;4.70;;;;;;;13.99;100.00;98946.14;78497;1298;3027106;-66
2023/10/23 02:09:39;;;;;;;9.90;5.90;;;;;;;14.31;100.00;98941.19;79616;1297;3018524;-68
2023/10/23 02:12:07;;;;;;;9.00;6.30;;;;;;;14.40;100.00;98930.39;79617;1295;3011538;-66
2023/10/23 02:14:35;;;;;;;11.00;6.90;;;;;;;14.44;100.00;98931.27;78394;1297;3056884;-68
2023/10/23 02:17:01;;;;;;;11.10;6.80;;;;;;;14.31;100.00;98939.63;79619;1294;3020634;-67
2023/10/23 02:19:29;;;;;;;9.60;5.50;;;;;;;14.08;100.00;98959.71;79767;1297;3013381;-67
2023/10/23 02:21:57;;;;;;;7.60;5.60;;;;;;;14.27;100.00;98961.60;78492;1297;3052395;-66
2023/10/23 02:24:24;;;;;;;11.10;6.90;;;;;;;14.42;100.00;98964.81;79792;1294;3013665;-68
2023/10/23 02:26:51;;;;;;;24.30;10.80;;;;;;;14.35;100.00;98973.30;79612;1297;3011628;-67
2023/10/23 02:29:19;;;;;;;44.80;15.20;;;;;;;14.05;100.00;98977.89;78546;1295;3026477;-64
2023/10/23 02:31:45;;;;;;;43.70;15.30;;;;;;;14.14;100.00;98969.06;79561;1296;3013001;-67
2023/10/23 02:34:11;;;;;;;33.40;13.70;;;;;;;14.38;100.00;98953.83;79714;1296;3011855;-66
2023/10/23 02:36:39;;;;;;;34.90;15.20;;;;;;;14.36;100.00;98949.09;78483;1297;3026267;-67
2023/10/23 02:39:06;;;;;;;23.50;11.70;;;;;;;14.13;100.00;98953.47;79596;1297;3013699;-67
2023/10/23 02:41:32;;;;;;;19.40;8.80;;;;;;;13.93;100.00;98966.89;80057;1296;3011367;-68
2023/10/23 02:44:00;;;;;;;20.40;9.90;;;;;;;14.35;100.00;98969.09;78611;1297;3025820;-67
2023/10/23 02:46:26;;;;;;;33.60;14.70;;;;;;;14.41;100.00;98970.70;79896;1297;3018646;-66
2023/10/23 02:48:53;;;;;;;35.80;15.30;;;;;;;14.35;100.00;98955.89;79674;1295;3011404;-68
2023/10/23 02:51:21;;;;;;;23.80;10.10;;;;;;;14.06;100.00;98966.71;78693;1298;3025874;-67
2023/10/23 02:53:48;;;;;;;20.20;9.60;;;;;;;14.07;100.00;98970.14;79694;1295;3013611;-67
2023/10/23 02:56:14;;;;;;;22.10;10.70;;;;;;;14.38;100.00;98966.88;79563;1296;3011351;-67
2023/10/23 02:58:42;;;;;;;22.10;10.90;;;;;;;14.33;100.00;98955.35;78432;1294;3026881;-65
2023/10/23 03:01:16;;;;;;;23.30;11.60;;;;;;;14.19;100.00;98957.91;79756;1298;3018703;-66
2023/10/23 03:03:44;;;;;;;;;;;;;;;14.11;100.00;98958.70;78415;1298;3051986;-67
2023/10/23 03:06:11;;;;;;;21.70;10.50;;;;;;;14.22;100.00;98968.08;79673;1298;3018491;-67
2023/10/23 03:08:37;;;;;;;19.80;9.00;;;;;;;14.46;100.00;98954.02;79651;1298;3013323;-67
2023/10/23 03:11:05;;;;;;;20.20;10.50;;;;;;;14.44;100.00;98942.62;78204;1295;3026664;-67
2023/10/23 03:13:32;;;;;;;16.40;7.70;;;;;;;14.18;100.00;98956.21;79630;1296;3014372;-67
2023/10/23 03:15:58;;;;;;;24.10;10.90;;;;;;;14.43;100.00;98949.72;79668;1296;3011939;-68
2023/10/23 03:18:26;;;;;;;18.90;9.60;;;;;;;14.47;100.00;98935.98;78437;1297;3026140;-66
2023/10/23 03:21:00;;;;;;;16.20;9.90;;;;;;;14.35;100.00;98935.81;79877;1297;3012916;-66
2023/10/23 03:23:28;;;;;;;17.70;8.50;;;;;;;14.15;100.00;98934.23;78388;1298;3069274;-67
2023/10/23 03:25:56;;;;;;;16.30;7.50;;;;;;;14.17;100.00;98927.95;79743;1298;3013482;-67
2023/10/23 03:28:23;;;;;;;22.50;10.00;;;;;;;14.50;100.00;98921.13;79710;1294;3011868;-69
2023/10/23 03:30:51;;;;;;;17.20;8.80;;;;;;;14.41;100.00;98921.39;78426;1296;3051896;-69
2023/10/23 03:33:18;;;;;;;12.30;7.40;;;;;;;14.37;100.00;98916.43;79640;1297;3012906;-66
2023/10/23 03:35:45;;;;;;;10.50;5.00;;;;;;;14.11;100.00;98920.52;79792;1298;3013153;-65
2023/10/23 03:38:13;;;;;;;11.10;5.60;;;;;;;14.32;100.00;98911.02;78228;1295;3026537;-66
2023/10/23 03:40:39;;;;;;;10.00;6.20;;;;;;;14.50;100.00;98908.05;79850;1299;3014994;-69
2023/10/23 03:43:06;;;;;;;12.60;6.90;;;;;;;14.54;100.00;98909.00;79685;1297;3011584;-69
2023/10/23 03:45:36;;;;;;;12.50;7.00;;;;;;;14.37;100.00;98904.41;78307;1298;3052650;-67
2023/10/23 03:48:03;;;;;;;8.00;4.80;;;;;;;14.12;100.00;98908.26;79802;1297;3013647;-71
2023/10/23 03:50:30;;;;;;;9.90;5.90;;;;;;;14.51;100.00;98910.45;79762;1294;3011543;-68
2023/10/23 03:52:58;;;;;;;8.30;6.20;;;;;;;14.64;100.00;98901.79;78571;1295;3068724;-67
2023/10/23 03:55:24;;;;;;;12.30;7.10;;;;;;;14.68;100.00;98905.85;79591;1294;3020810;-65
2023/10/23 03:57:51;;;;;;;12.10;7.30;;;;;;;14.42;100.00;98914.04;79667;1294;3014034;-67
2023/10/23 04:00:19;;;;;;;13.70;7.10;;;;;;;14.16;100.00;98927.65;78405;1302;3025081;-66
2023/10/23 04:02:45;;;;;;;20.70;9.90;;;;;;;14.43;100.00;98920.99;79638;1297;3018637;-66
2023/10/23 04:05:12;;;;;;;41.10;18.20;;;;;;;14.83;100.00;98923.23;79691;1298;3012647;-64
2023/10/23 04:07:40;;;;;;;38.20;16.30;;;;;;;14.59;100.00;98918.73;78328;1294;3026529;-67
2023/10/23 04:10:08;;;;;;;34.50;13.10;;;;;;;14.39;100.00;98927.02;79691;1296;3013116;-65
2023/10/23 04:12:34;;;;;;;51.40;18.70;;;;;;;14.20;100.00;98931.52;79757;1295;3011648;-68
2023/10/23 04:15:03;;;;;;;58.90;22.20;;;;;;;14.46;100.00;98925.52;78465;1297;3053270;-68
2023/10/23 04:17:29;;;;;;;48.10;20.50;;;;;;;14.57;100.00;98934.02;79907;1299;3013805;-69
2023/10/23 04:19:56;;;;;;;31.50;13.30;;;;;;;14.41;100.00;98941.02;80087;1296;3011318;-64
2023/10/23 04:22:23;;;;;;;34.00;15.10;;;;;;;14.33;100.00;98947.35;78648;1295;3068773;-67
2023/10/23 04:24:53;;;;;;;21.40;11.90;;;;;;;14.75;100.00;98941.55;80864;1298;3013716;-66
2023/10/23 04:27:20;;;;;;;30.20;14.80;;;;;;;14.56;100.00;98940.36;79785;1298;3011754;-67
2023/10/23 04:29:48;;;;;;;21.50;10.90;;;;;;;14.32;100.00;98939.16;78645;1296;3053768;-68
2023/10/23 04:32:14;;;;;;;20.10;11.00;;;;;;;14.50;100.00;98941.20;79801;1301;3013133;-68
2023/10/23 04:34:41;;;;;;;24.30;13.30;;;;;;;14.74;100.00;98929.16;79780;1297;3011278;-67
2023/10/23 04:37:08;;;;;;;25.00;13.00;;;;;;;14.91;100.00;98916.05;78306;1301;3025913;-70
2023/10/23 04:39:35;;;;;;;20.50;11.00;;;;;;;14.67;100.00;98935.23;79654;1298;3013932;-68
2023/10/23 04:42:01;;;;;;;13.40;8.30;;;;;;;14.58;100.00;98950.77;79643;1294;3011853;-67
2023/10/23 04:44:29;;;;;;;12.90;8.50;;;;;;;15.18;100.00;98935.05;78431;1295;3026472;-64
2023/10/23 04:46:56;;;;;;;17.50;10.20;;;;;;;15.25;100.00;98935.09;79867;1308;3019061;-64
2023/10/23 04:49:22;;;;;;;14.90;10.30;;;;;;;15.25;100.00;98929.05;79736;1298;3011680;-68
2023/10/23 04:51:50;;;;;;;18.40;10.00;;;;;;;14.90;100.00;98937.23;78512;1299;3026594;-67
2023/10/23 04:54:17;;;;;;;11.60;7.20;;;;;;;14.69;100.00;98939.98;79707;1298;3013482;-69
2023/10/23 04:56:43;;;;;;;15.50;8.40;;;;;;;15.27;100.00;98933.34;79714;1301;3013085;-67
2023/10/23 04:59:11;;;;;;;13.50;9.70;;;;;;;15.40;100.00;98936.83;78347;1294;3026621;-67
2023/10/23 05:01:38;;;;;;;17.40;10.50;;;;;;;15.19;100.00;98935.32;79679;1295;3013690;-66
2023/10/23 05:04:05;;;;;;;16.40;11.00;;;;;;;15.04;100.00;98932.38;79567;1301;3012837;-68
2023/10/23 05:06:33;;;;;;;16.80;8.70;;;;;;;14.80;100.00;98932.10;78427;1296;3025939;-66
2023/10/23 05:08:59;;;;;;;12.40;8.20;;;;;;;14.97;100.00;98942.45;79859;1295;3013159;-67
2023/10/23 05:11:25;;;;;;;16.50;9.50;;;;;;;15.35;100.00;98949.04;79700;1294;3011886;-66
2023/10/23 05:13:53;;;;;;;15.50;10.20;;;;;;;15.16;100.00;98942.06;78397;1299;3028080;-67
2023/10/23 05:16:20;;;;;;;21.00;11.70;;;;;;;15.15;100.00;98948.88;79570;1300;3019324;-67
2023/10/23 05:18:47;;;;;;;14.30;7.80;;;;;;;15.01;100.00;98971.98;79746;1299;3011873;-66
2023/10/23 05:21:15;;;;;;;16.50;8.90;;;;;;;15.27;100.00;98965.30;78534;1294;3026185;-65
2023/10/23 05:23:41;;;;;;;17.50;10.40;;;;;;;15.45;100.00;98967.38;79658;1298;3013093;-65
2023/10/23 05:26:10;;;;;;;16.60;10.00;;;;;;;15.30;100.00;98967.14;79674;1295;3011791;-69
2023/10/23 05:28:40;;;;;;;17.80;10.80;;;;;;;15.07;100.00;98958.02;78529;1297;3052696;-68
2023/10/23 05:31:08;;;;;;;12.60;7.80;;;;;;;14.96;100.00;98961.93;79847;1299;3013091;-66
2023/10/23 05:33:37;;;;;;;15.40;9.50;;;;;;;15.37;100.00;98963.73;79237;1297;3011578;-66
2023/10/23 05:36:04;;;;;;;19.60;10.10;;;;;;;15.48;100.00;98962.52;79808;1297;3013767;-67
2023/10/23 05:38:31;;;;;;;18.00;11.00;;;;;;;15.43;100.00;98972.72;79822;1297;3013344;-67
2023/10/23 05:40:59;;;;;;;19.40;10.80;;;;;;;15.42;99.83;98968.89;78463;1298;3057708;-67
2023/10/23 05:43:28;;;;;;;16.00;9.20;;;;;;;15.26;100.00;98971.14;79723;1294;3011674;-64
2023/10/23 05:45:55;;;;;;;17.30;9.40;;;;;;;15.71;99.35;98973.42;79668;1295;3011946;-66
2023/10/23 05:48:23;;;;;;;23.90;12.70;;;;;;;15.75;97.89;98968.66;78633;1297;3053874;-67
2023/10/23 05:51:00;;;;;;;19.20;12.20;;;;;;;15.61;98.73;98963.48;79720;1296;3013249;-65
2023/10/23 05:53:28;;;;;;;22.60;11.80;;;;;;;15.43;99.26;98969.86;78464;1299;3051616;-66
2023/10/23 05:55:59;;;;;;;24.30;12.30;;;;;;;15.50;98.74;98976.15;79711;1295;3013123;-66
2023/10/23 05:58:27;;;;;;;24.00;14.60;;;;;;;15.79;98.32;98978.90;78460;1297;3053754;-66
2023/10/23 06:00:53;;;;;;;25.00;16.20;;;;;;;15.80;97.70;98980.55;79741;1294;3013545;-67
2023/10/23 06:03:20;;;;;;;28.30;15.50;;;;;;;15.89;97.01;98977.64;79718;1297;3013451;-66
2023/10/23 06:05:48;;;;;;;28.60;17.20;;;;;;;15.52;97.51;98971.21;78605;1300;3026416;-66
2023/10/23 06:08:14;;;;;;;22.20;12.50;;;;;;;15.35;99.73;98980.44;80156;1294;3018085;-65
2023/10/23 06:10:42;;;;;;;26.00;14.20;;;;;;;15.86;98.28;98974.49;80010;1294;3011761;-67
2023/10/23 06:13:11;;;;;;;26.10;13.30;;;;;;;16.12;95.58;98965.50;78568;1295;3052501;-69
2023/10/23 06:15:38;;;;;;;22.90;13.50;;;;;;;15.95;95.48;98973.73;79670;1295;3013234;-71
2023/10/23 06:18:04;;;;;;;27.80;14.50;;;;;;;15.75;96.33;98974.58;79695;1295;3011507;-67
2023/10/23 06:20:32;;;;;;;24.30;11.60;;;;;;;15.64;97.50;98979.79;78469;1297;3068885;-66
2023/10/23 06:22:59;;;;;;;24.20;11.70;;;;;;;15.89;97.06;98979.77;79755;1298;3013132;-67
2023/10/23 06:25:29;;;;;;;28.30;14.00;;;;;;;16.33;93.09;98965.48;79682;1297;3011661;-67
2023/10/23 06:27:59;;;;;;;28.50;14.90;;;;;;;16.23;93.68;98960.38;78385;1296;3051670;-64
2023/10/23 06:30:26;;;;;;;26.30;14.40;;;;;;;15.91;95.15;98974.10;79623;1297;3013166;-65
2023/10/23 06:32:53;;;;;;;24.60;12.10;;;;;;;15.90;95.36;98969.05;79683;1299;3011279;-63
2023/10/23 06:35:20;;;;;;;19.90;11.20;;;;;;;16.09;94.78;98983.46;78326;1296;3027206;-66
2023/10/23 06:37:48;;;;;;;26.70;14.00;;;;;;;16.49;92.08;98983.64;79719;1294;3013666;-65
2023/10/23 06:40:15;;;;;;;34.70;15.50;;;;;;;16.40;91.84;98984.68;79813;1294;3011624;-65
2023/10/23 06:42:43;;;;;;;28.60;15.00;;;;;;;16.24;92.71;98975.34;78481;1298;3053458;-67
2023/10/23 06:45:10;;;;;;;27.70;15.90;;;;;;;16.04;93.70;98974.67;79746;1300;3012631;-64
2023/10/23 06:47:38;;;;;;;20.10;10.60;;;;;;;16.05;94.00;98972.67;79726;1300;3011606;-65
2023/10/23 06:50:07;;;;;;;23.70;12.80;;;;;;;16.45;91.34;98971.86;78487;1296;3070069;-65
2023/10/23 06:52:33;;;;;;;31.90;13.90;;;;;;;16.58;90.85;98975.69;79676;1294;3012995;-65
2023/10/23 06:55:00;;;;;;;29.20;14.90;;;;;;;16.59;89.54;98979.20;79734;1298;3011616;-68
2023/10/23 06:57:28;;;;;;;28.80;15.80;;;;;;;16.20;91.49;98987.19;78582;1294;3053394;-67
2023/10/23 06:59:54;;;;;;;22.80;12.10;;;;;;;16.26;91.50;98987.75;79709;1298;3018429;-68
2023/10/23 07:02:21;;;;;;;24.90;12.30;;;;;;;16.40;91.18;98986.41;79636;1295;3013608;-67
2023/10/23 07:04:49;;;;;;;29.10;13.50;;;;;;;16.54;89.84;98982.67;78626;1294;3025725;-68
2023/10/23 07:07:16;;;;;;;25.10;13.60;;;;;;;16.56;89.64;98981.80;79756;1294;3013126;-68
2023/10/23 07:09:42;;;;;;;26.50;15.10;;;;;;;16.54;89.58;98987.09;79701;1297;3011452;-70
2023/10/23 07:12:11;;;;;;;26.40;11.00;;;;;;;16.30;90.68;98983.45;78420;1297;3026346;-69
2023/10/23 07:14:37;;;;;;;19.50;10.30;;;;;;;16.65;90.30;98984.23;79930;1294;3012882;-67
2023/10/23 07:17:05;;;;;;;22.80;11.50;;;;;;;17.26;86.44;98988.17;79635;1299;3013002;-70
2023/10/23 07:19:33;;;;;;;19.30;12.70;;;;;;;17.53;84.16;98985.88;78414;1298;3069652;-70
2023/10/23 07:21:59;;;;;;;24.50;12.70;;;;;;;17.26;84.46;98997.73;79715;1294;3013731;-68
2023/10/23 07:24:25;;;;;;;25.40;11.80;;;;;;;16.89;85.67;98994.12;79835;1297;3011541;-68
2023/10/23 07:26:53;;;;;;;16.90;9.00;;;;;;;16.77;86.49;98993.59;78477;1295;3026647;-66
2023/10/23 07:29:20;;;;;;;16.90;8.90;;;;;;;17.11;86.38;98989.89;79655;1293;3018854;-65
2023/10/23 07:31:47;;;;;;;21.00;10.50;;;;;;;17.53;84.57;98989.75;79926;1300;3013094;-66
2023/10/23 07:34:14;;;;;;;23.20;11.00;;;;;;;17.65;83.16;98989.70;78680;1293;3026673;-65
2023/10/23 07:36:41;;;;;;;25.60;11.80;;;;;;;17.49;82.25;98992.62;79632;1296;3012930;-67
2023/10/23 07:39:08;;;;;;;25.00;12.80;;;;;;;17.32;83.21;98989.64;79765;1296;3013044;-69
2023/10/23 07:41:36;;;;;;;23.10;10.30;;;;;;;17.19;84.20;98990.02;78454;1295;3027010;-67
2023/10/23 07:44:04;;;;;;;18.40;10.00;;;;;;;17.70;83.20;98989.68;79920;1298;3013437;-70
2023/10/23 07:46:31;;;;;;;20.20;10.50;;;;;;;18.06;80.64;98991.04;79708;1298;3011798;-67
2023/10/23 07:48:58;;;;;;;21.30;10.70;;;;;;;18.17;79.85;98987.75;78712;1295;3070135;-68
2023/10/23 07:51:25;;;;;;;21.80;10.90;;;;;;;18.19;79.68;98988.49;79640;1294;3013229;-69
2023/10/23 07:53:52;;;;;;;26.20;12.70;;;;;;;18.15;79.44;98991.75;79679;1293;3013081;-66
2023/10/23 07:56:20;;;;;;;23.90;13.40;;;;;;;17.94;79.90;98994.85;78845;1294;3026553;-70
2023/10/23 07:58:46;;;;;;;21.70;9.90;;;;;;;17.89;80.39;98997.41;79907;1297;3013384;-70
2023/10/23 08:01:13;;;;;;;21.50;8.70;;;;;;;18.33;78.07;99000.49;79835;1300;3013181;-68
2023/10/23 08:03:41;;;;;;;20.70;9.60;;;;;;;18.93;75.60;98996.15;78453;1295;3026644;-66
2023/10/23 08:06:09;;;;;;;19.30;10.20;;;;;;;19.05;74.79;99000.92;79816;1295;3013453;-67
2023/10/23 08:08:39;;;;;;;25.10;11.40;;;;;;;18.92;74.41;99000.34;79598;1295;3011612;-67
2023/10/23 08:11:08;;;;;;;28.90;12.00;;;;;;;18.70;74.20;98998.99;78405;1298;3053154;-67
2023/10/23 08:13:35;;;;;;;22.60;11.00;;;;;;;18.55;75.36;98993.77;79590;1297;3013437;-67
2023/10/23 08:16:03;;;;;;;23.40;11.80;;;;;;;18.51;75.35;98995.41;79728;1298;3012637;-63
2023/10/23 08:18:32;;;;;;;25.50;11.60;;;;;;;18.41;75.10;98994.58;78566;1294;3069078;-65
2023/10/23 08:20:58;;;;;;;26.80;11.00;;;;;;;18.43;75.10;98994.90;79754;1298;3013720;-66
2023/10/23 08:23:24;;;;;;;18.20;8.40;;;;;;;18.61;75.07;98996.27;79569;1295;3011710;-63
2023/10/23 08:25:52;;;;;;;17.80;8.70;;;;;;;19.37;72.05;98994.77;78488;1296;3027441;-65
2023/10/23 08:28:19;;;;;;;21.20;9.40;;;;;;;19.61;70.22;98997.09;79710;1297;3013317;-65
2023/10/23 08:30:45;;;;;;;22.40;9.60;;;;;;;19.62;69.23;99000.09;79639;1295;3011772;-67
2023/10/23 08:33:13;;;;;;;19.80;8.60;;;;;;;19.78;69.26;99000.56;78623;1295;3026062;-65
2023/10/23 08:35:41;;;;;;;20.40;9.70;;;;;;;19.57;69.06;98999.61;79800;1294;3013740;-67
2023/10/23 08:38:08;;;;;;;17.30;9.60;;;;;;;19.46;69.73;98996.34;79682;1297;3011465;-64
2023/10/23 08:40:35;;;;;;;21.10;9.70;;;;;;;19.53;70.34;98995.38;78475;1295;3052234;-66
2023/10/23 08:43:02;;;;;;;21.80;9.80;;;;;;;19.51;70.02;98994.04;79767;1300;3013375;-66
2023/10/23 08:45:29;;;;;;;21.10;9.30;;;;;;;19.38;69.02;99004.08;79789;1296;3011764;-67
2023/10/23 08:47:57;;;;;;;19.10;9.30;;;;;;;19.30;68.97;98998.13;78454;1299;3027580;-65
2023/10/23 08:50:24;;;;;;;25.30;9.00;;;;;;;19.31;67.92;98995.77;79478;1294;3020668;-65
2023/10/23 08:52:58;;;;;;;21.00;9.30;;;;;;;19.30;68.27;99001.87;79705;1295;3011627;-68
2023/10/23 08:55:27;;;;;;;22.00;9.80;;;;;;;19.34;68.59;98993.94;78448;1296;3051748;-67
2023/10/23 08:57:54;;;;;;;22.50;9.30;;;;;;;19.45;67.76;98993.55;79530;1299;3013708;-70
2023/10/23 09:00:24;;;;;;;21.40;9.90;;;;;;;19.51;65.99;98990.48;79846;1302;3012147;-68
2023/10/23 09:02:51;;;;;;;28.10;9.60;;;;;;;19.54;65.29;98987.98;78413;1295;3068007;-67
2023/10/23 09:05:18;;;;;;;21.10;9.50;;;;;;;19.59;65.91;98986.27;79581;1297;3018567;-67
2023/10/23 09:07:45;;;;;;;18.20;9.30;;;;;;;19.76;66.08;98986.40;79876;1299;3012002;-69
2023/10/23 09:10:14;;;;;;;22.90;9.10;;;;;;;19.80;65.39;98983.70;78352;1298;3025862;-67
2023/10/23 09:12:40;;;;;;;19.60;8.90;;;;;;;19.95;65.89;98984.95;79874;1295;3015494;-71
2023/10/23 09:15:23;;;;;;;22.40;9.60;;;;;;;20.13;65.58;98984.77;79600;1297;3011612;-67
2023/10/23 09:17:51;;;;;;;19.70;9.10;;;;;;;20.26;64.81;98986.24;78571;1294;3069101;-66
2023/10/23 09:20:18;;;;;;;24.00;8.80;;;;;;;20.37;64.51;98986.23;79618;1296;3018940;-65
2023/10/23 09:22:48;;;;;;;17.00;8.10;;;;;;;20.42;63.32;98990.71;79643;1298;3011662;-64
2023/10/23 09:25:19;;;;;;;14.70;7.30;;;;;;;20.50;64.86;98989.30;78626;1296;3052309;-69
2023/10/23 09:27:46;;;;;;;14.80;7.60;;;;;;;20.57;64.92;98986.35;80164;1295;3012710;-69
2023/10/23 09:30:20;;;;;;;13.30;6.70;;;;;;;20.63;63.71;98985.18;78585;1297;3028507;-65
2023/10/23 09:32:53;;;;;;;18.00;6.10;;;;;;;20.72;61.18;98980.02;77296;1294;3281858;-68
2023/10/23 09:35:25;;;;;;;13.90;6.20;;;;;;;20.85;60.09;98981.79;78589;1297;3069491;-64
2023/10/23 09:37:51;;;;;;;11.70;5.90;;;;;;;20.96;60.04;98975.26;79699;1298;3012835;-69
2023/10/23 09:40:19;;;;;;;11.70;6.10;;;;;;;20.95;60.94;98979.55;78247;1297;3025814;-66
2023/10/23 09:42:45;;;;;;;18.90;6.00;;;;;;;21.03;60.59;98972.49;79726;1294;3012887;-67
2023/10/23 09:45:12;;;;;;;11.00;5.20;;;;;;;21.10;59.27;98965.75;79672;1294;3013037;-66
2023/10/23 09:47:40;;;;;;;11.80;4.90;;;;;;;21.19;58.24;98969.55;78745;1294;3026374;-65
2023/10/23 09:50:07;;;;;;;10.40;4.40;;;;;;;21.31;57.77;98960.62;79677;1294;3013438;-69
2023/10/23 09:52:35;;;;;;;8.90;3.60;;;;;;;21.44;55.98;98951.98;79757;1295;3012959;-69
2023/10/23 09:55:05;;;;;;;9.80;3.70;;;;;;;21.48;54.50;98955.61;78483;1295;3057761;-70
2023/10/23 09:57:33;;;;;;;11.90;3.50;;;;;;;21.57;54.20;98956.39;79805;1294;3011725;-66
2023/10/23 10:00:13;;;;;;;10.20;3.60;;;;;;;21.65;53.35;98947.09;79313;1295;3011702;-70
2023/10/23 10:02:47;;;;;;;8.00;2.90;;;;;;;21.80;53.39;98955.23;78527;1294;3051573;-65
2023/10/23 10:05:50;;;;;;;8.10;2.80;;;;;;;21.85;52.99;98943.37;79227;1294;3013505;-71
2023/10/23 10:08:19;;;;;;;7.80;3.00;;;;;;;21.83;51.68;98944.33;78281;1297;3052619;-63
2023/10/23 10:10:49;;;;;;;9.20;2.40;;;;;;;21.69;50.53;98959.69;79713;1299;3013257;-67
2023/10/23 10:13:18;;;;;;;4.20;2.10;;;;;;;21.62;50.71;98945.71;78539;1294;3050741;-67
2023/10/23 10:15:44;;;;;;;9.10;2.50;;;;;;;21.70;50.38;98941.98;79770;1294;3013720;-66
2023/10/23 10:18:11;;;;;;;7.30;2.30;;;;;;;21.87;49.43;98945.70;79572;1299;3011586;-68
2023/10/23 10:20:41;;;;;;;8.80;2.60;;;;;;;21.98;48.63;98941.70;78507;1297;3050278;-70
2023/10/23 10:23:12;;;;;;;4.10;1.40;;;;;;;22.04;47.58;98945.26;79707;1297;3015016;-66
2023/10/23 10:25:41;;;;;;;2.90;1.40;;;;;;;22.06;45.84;98933.61;78392;1294;3068211;-67
2023/10/23 10:28:07;;;;;;;3.10;1.30;;;;;;;22.06;45.22;98932.20;79623;1294;3013865;-67
2023/10/23 10:30:47;;;;;;;3.50;1.50;;;;;;;22.06;44.78;98943.88;79763;1294;3011434;-65
2023/10/23 10:33:26;;;;;;;1.80;0.80;;;;;;;22.09;44.78;98934.34;78305;1294;3051996;-67
2023/10/23 10:36:00;;;;;;;3.90;1.60;;;;;;;22.22;44.48;98941.30;78634;1294;3050298;-63
2023/10/23 10:38:31;;;;;;;5.90;1.50;;;;;;;22.15;44.23;98939.41;79117;1295;3011910;-63
2023/10/23 10:41:05;;;;;;;3.40;1.60;;;;;;;22.19;44.60;98936.08;79861;1295;3011984;-67
2023/10/23 10:43:34;;;;;;;3.40;0.80;;;;;;;22.32;44.02;98938.15;78459;1297;3053130;-68
2023/10/23 10:46:28;;;;;;;4.80;1.00;;;;;;;22.31;43.36;98931.95;79656;1297;3012935;-70
2023/10/23 10:48:56;;;;;;;7.00;1.90;;;;;;;22.40;43.19;98934.70;78436;1295;3057650;-69
2023/10/23 10:51:24;;;;;;;3.60;0.90;;;;;;;22.42;42.79;98938.73;79701;1295;3018753;-69
2023/10/23 10:53:58;;;;;;;3.00;1.00;;;;;;;22.47;42.09;98940.31;79934;1295;3011867;-67
2023/10/23 10:57:40;;;;;;;5.00;1.20;;;;;;;22.68;41.68;98926.36;80253;1303;3013481;-66
2023/10/23 11:00:07;;;;;;;3.10;1.00;;;;;;;22.68;41.40;98945.14;79224;1304;3013091;-67
2023/10/23 11:02:34;;;;;;;2.90;1.20;;;;;;;22.63;41.09;98935.83;79312;1301;3012788;-68
2023/10/23 11:05:09;;;;;;;2.70;1.00;;;;;;;22.73;41.09;98928.09;78064;1304;3052772;-66
2023/10/23 11:07:38;;;;;;;2.40;0.90;;;;;;;22.78;40.38;98931.16;78852;1303;3012751;-70
2023/10/23 11:10:05;;;;;;;3.50;1.00;;;;;;;22.68;39.59;98928.97;77135;1297;6354567;-70